Time;durP1;ratioP1;P1;durP2;ratioP2;P2;SDS_P1;SDS_P2;PMS_P1;PMS_P2;Temp;Humidity;BMP_temperature;BMP_pressure;BME280_temperature;BME280_humidity;BME280_pressure;Samples;Min_cycle;Max_cycle;Signal;HPM_P1;HPM_P2
2022/05/10 00:02:24;;;;;;;8.83;6.30;;;;;;;16.09;44.84;101720.81;5081093;28;20165;-72
2022/05/10 00:04:51;;;;;;;10.33;6.07;;;;;;;15.94;45.15;101719.00;5079844;28;20476;-71
2022/05/10 00:07:17;;;;;;;13.13;6.20;;;;;;;15.97;44.92;101721.63;5080485;28;20424;-72
2022/05/10 00:09:42;;;;;;;7.40;6.00;;;;;;;15.79;45.47;101722.44;5080527;28;20446;-71
2022/05/10 00:12:08;;;;;;;11.00;6.17;;;;;;;15.95;45.21;101715.50;5080292;28;20793;-72
2022/05/10 00:14:34;;;;;;;6.43;5.80;;;;;;;15.99;45.21;101716.38;5080123;28;20180;-71
2022/05/10 00:17:00;;;;;;;9.00;6.67;;;;;;;15.75;46.01;101718.03;5080767;28;20176;-72
2022/05/10 00:19:27;;;;;;;12.20;6.00;;;;;;;15.74;45.73;101716.28;5080268;28;20419;-71
2022/05/10 00:21:53;;;;;;;6.70;6.00;;;;;;;15.68;45.59;101712.75;5080168;28;20200;-72
2022/05/10 00:24:18;;;;;;;12.43;6.90;;;;;;;15.79;45.42;101708.38;5079687;28;20382;-71
2022/05/10 00:26:43;;;;;;;7.43;5.87;;;;;;;15.97;45.55;101712.88;5080129;28;20183;-72
2022/05/10 00:29:09;;;;;;;8.10;6.20;;;;;;;15.88;45.52;101703.19;5079943;28;20169;-71
2022/05/10 00:31:34;;;;;;;8.73;5.97;;;;;;;15.81;45.44;101704.94;5080217;28;20169;-72
2022/05/10 00:34:02;;;;;;;14.57;6.30;;;;;;;15.88;45.62;101699.69;5078971;28;20201;-71
2022/05/10 00:36:28;;;;;;;6.30;5.70;;;;;;;15.45;46.37;101703.00;5079724;28;20175;-72
2022/05/10 00:38:54;;;;;;;6.20;5.57;;;;;;;15.55;46.20;101699.56;5080123;28;20377;-71
2022/05/10 00:41:29;;;;;;;8.83;5.33;;;;;;;15.76;45.97;101701.41;5079922;28;20177;-70
2022/05/10 00:44:04;;;;;;;6.80;5.83;;;;;;;15.82;45.96;101692.69;5079180;28;20178;-71
2022/05/10 00:46:33;;;;;;;10.83;6.40;;;;;;;15.52;46.60;101693.38;5079566;28;20545;-71
2022/05/10 00:49:04;;;;;;;7.70;6.40;;;;;;;15.40;46.73;101695.09;5079243;28;20418;-71
2022/05/10 00:51:46;;;;;;;13.43;6.30;;;;;;;15.48;46.85;101688.13;5078987;28;20431;-71
2022/05/10 00:54:17;;;;;;;8.57;6.80;;;;;;;15.68;46.23;101682.06;5078948;28;20494;-72
2022/05/10 00:57:11;;;;;;;8.30;6.63;;;;;;;15.49;46.71;101679.38;5079059;28;20401;-72
2022/05/10 00:59:47;;;;;;;7.20;6.10;;;;;;;15.77;46.62;101676.84;5067734;28;20805;-72
2022/05/10 01:02:21;;;;;;;10.77;6.40;;;;;;;15.25;47.21;101676.63;5079432;28;20381;-72
2022/05/10 01:04:51;;;;;;;8.43;6.40;;;;;;;15.62;46.75;101680.28;5079666;28;20390;-72
2022/05/10 01:07:28;;;;;;;9.40;6.53;;;;;;;15.32;47.15;101676.66;5079507;28;20394;-73
2022/05/10 01:10:07;;;;;;;12.33;6.50;;;;;;;15.57;46.82;101668.88;5079570;28;20393;-72
2022/05/10 01:12:49;;;;;;;11.00;6.20;;;;;;;15.77;46.48;101662.81;5078438;28;20437;-71
2022/05/10 01:15:24;;;;;;;7.27;6.37;;;;;;;15.81;46.48;101654.97;5079311;28;20473;-71
2022/05/10 01:17:53;;;;;;;7.30;6.23;;;;;;;15.41;47.25;101660.09;5078703;28;20422;-71
2022/05/10 01:20:22;;;;;;;7.97;6.30;;;;;;;15.46;47.52;101653.06;5079159;28;20392;-73
2022/05/10 01:22:47;;;;;;;11.37;6.13;;;;;;;15.42;47.45;101650.44;5079148;28;20382;-75
2022/05/10 01:25:17;;;;;;;13.30;6.10;;;;;;;15.40;47.41;101653.06;5079290;28;20686;-73
2022/05/10 01:27:49;;;;;;;7.00;6.30;;;;;;;15.12;48.22;101642.41;5078859;28;20169;-74
2022/05/10 01:30:21;;;;;;;9.30;6.00;;;;;;;15.47;47.85;101638.19;5078487;28;20390;-73
2022/05/10 01:36:00;;;;;;;9.73;6.50;;;;;;;15.30;48.05;101632.84;5078373;28;20498;-74
2022/05/10 01:38:55;;;;;;;6.83;5.70;;;;;;;15.21;47.85;101632.81;5080038;28;20382;-74
2022/05/10 01:41:43;;;;;;;6.67;5.80;;;;;;;15.20;48.21;101629.31;5078280;28;20500;-73
2022/05/10 01:44:31;;;;;;;7.67;6.10;;;;;;;15.16;48.55;101623.16;5078858;28;20422;-73
2022/05/10 01:47:14;;;;;;;6.80;6.10;;;;;;;15.15;48.06;101620.53;5077918;28;20565;-72
2022/05/10 01:49:49;;;;;;;8.30;6.07;;;;;;;14.98;48.61;101617.84;5078171;28;20814;-72
2022/05/10 01:52:40;;;;;;;7.87;6.47;;;;;;;14.99;48.80;101611.69;5078612;28;20468;-72
2022/05/10 01:55:26;;;;;;;8.37;6.27;;;;;;;14.97;48.70;101605.56;5078032;28;20394;-73
2022/05/10 01:57:52;;;;;;;7.67;6.20;;;;;;;15.14;48.65;101606.53;5078758;28;20481;-72
2022/05/10 02:00:26;;;;;;;7.97;5.80;;;;;;;14.87;48.99;101603.75;5078676;28;20692;-73
2022/05/10 02:02:57;;;;;;;9.33;6.20;;;;;;;15.01;48.90;101594.22;5078137;28;20677;-72
2022/05/10 02:05:33;;;;;;;8.07;6.30;;;;;;;14.99;48.77;101593.31;5077865;28;20418;-71
2022/05/10 02:08:04;;;;;;;8.00;6.00;;;;;;;14.92;49.05;101592.41;5078011;28;20473;-72
2022/05/10 02:10:37;;;;;;;12.83;7.73;;;;;;;15.11;48.75;101585.53;5077921;28;20382;-72
2022/05/10 02:13:25;;;;;;;12.10;6.70;;;;;;;15.14;49.11;101577.66;5078222;28;20447;-71
2022/05/10 02:15:56;;;;;;;10.00;6.70;;;;;;;15.12;49.04;101579.38;5078650;28;20678;-71
2022/05/10 02:18:31;;;;;;;7.13;6.43;;;;;;;14.85;49.69;101584.50;5077717;28;20481;-71
2022/05/10 02:21:30;;;;;;;7.33;6.40;;;;;;;14.96;49.52;101582.81;5077730;28;20446;-72
2022/05/10 02:24:17;;;;;;;7.63;6.50;;;;;;;14.79;49.74;101580.97;5034799;28;20824;-71
2022/05/10 02:26:50;;;;;;;6.90;6.20;;;;;;;14.64;50.54;101580.91;5078364;28;20417;-71
2022/05/10 02:29:20;;;;;;;7.63;6.27;;;;;;;14.89;49.94;101581.03;5078626;28;20498;-71
2022/05/10 02:34:36;;;;;;;11.10;6.00;;;;;;;14.59;50.64;101577.31;5078005;28;20403;-71
2022/05/10 02:37:01;;;;;;;6.90;6.20;;;;;;;14.81;50.32;101567.84;5077627;28;20411;-71
2022/05/10 02:39:26;;;;;;;8.17;6.30;;;;;;;14.66;50.57;101563.41;5078414;28;20434;-71
2022/05/10 02:41:52;;;;;;;6.90;6.13;;;;;;;14.67;50.94;101564.25;5077399;28;20173;-71
2022/05/10 02:44:18;;;;;;;11.00;6.40;;;;;;;14.75;50.59;101554.72;5078838;28;20164;-71
2022/05/10 02:46:43;;;;;;;8.63;6.77;;;;;;;14.09;52.08;101570.84;5077997;28;20213;-71
2022/05/10 02:49:08;;;;;;;7.00;6.30;;;;;;;14.49;51.03;101556.28;5082275;28;20535;-72
2022/05/10 02:51:34;;;;;;;7.10;6.20;;;;;;;14.71;50.77;101551.19;5082301;28;20191;-71
2022/05/10 02:53:59;;;;;;;6.87;6.00;;;;;;;14.32;51.66;101555.28;5082032;28;20318;-72
2022/05/10 02:56:27;;;;;;;11.00;6.40;;;;;;;14.74;50.95;101548.56;5082194;28;20169;-71
2022/05/10 02:59:07;;;;;;;8.33;6.23;;;;;;;14.55;51.45;101549.31;5081751;28;20197;-73
2022/05/10 03:01:46;;;;;;;9.10;6.40;;;;;;;14.67;51.24;101552.03;5082008;28;20537;-71
2022/05/10 03:04:12;;;;;;;10.60;6.77;;;;;;;14.64;51.24;101546.78;5081369;28;20434;-72
2022/05/10 03:06:39;;;;;;;8.87;5.73;;;;;;;14.65;50.92;101540.63;5081758;28;20426;-71
2022/05/10 03:09:05;;;;;;;8.80;6.40;;;;;;;14.64;51.81;101531.03;5081820;28;20812;-71
2022/05/10 03:11:31;;;;;;;6.47;5.90;;;;;;;14.46;52.18;101523.88;5082187;28;20407;-72
2022/05/10 03:13:57;;;;;;;13.07;6.50;;;;;;;14.76;51.37;101532.81;5081622;28;20863;-72
2022/05/10 03:16:23;;;;;;;7.23;6.33;;;;;;;14.42;51.99;101536.13;5082013;28;20164;-72
2022/05/10 03:18:49;;;;;;;9.10;6.70;;;;;;;14.84;51.30;101522.38;5082063;28;20426;-70
2022/05/10 03:21:14;;;;;;;7.43;6.70;;;;;;;14.73;51.62;101528.44;5081206;28;20397;-71
2022/05/10 03:23:40;;;;;;;6.53;5.77;;;;;;;14.68;51.71;101511.81;5081504;28;20168;-72
2022/05/10 03:26:05;;;;;;;7.47;6.63;;;;;;;14.82;51.91;101520.59;5081351;28;20583;-71
2022/05/10 03:28:31;;;;;;;7.10;6.50;;;;;;;14.45;52.49;101525.63;5081526;28;20222;-72
2022/05/10 03:30:56;;;;;;;8.67;6.20;;;;;;;14.53;52.69;101519.53;5081638;28;20193;-71
2022/05/10 03:33:22;;;;;;;11.50;6.93;;;;;;;14.63;52.26;101513.53;5081489;28;20248;-70
2022/05/10 03:35:47;;;;;;;8.20;6.40;;;;;;;14.63;52.45;101513.53;5081930;28;20238;-70
2022/05/10 03:38:12;;;;;;;6.90;6.30;;;;;;;14.49;52.44;101514.28;5081272;28;20173;-72
2022/05/10 03:40:38;;;;;;;7.80;6.07;;;;;;;14.46;52.96;101510.75;5080903;28;20527;-72
2022/05/10 03:43:06;;;;;;;8.80;6.73;;;;;;;14.81;52.08;101508.34;5080904;28;20168;-71
2022/05/10 03:45:32;;;;;;;9.00;6.50;;;;;;;14.85;52.23;101509.25;5081145;28;20401;-71
2022/05/10 03:47:57;;;;;;;12.43;8.27;;;;;;;14.47;53.07;101512.53;5080818;28;20459;-71
2022/05/10 03:50:24;;;;;;;7.60;6.23;;;;;;;14.40;53.57;101495.00;5080887;28;20200;-73
2022/05/10 03:52:49;;;;;;;8.07;6.67;;;;;;;14.78;52.37;101492.59;5081288;28;20467;-71
2022/05/10 03:55:22;;;;;;;8.40;6.30;;;;;;;14.39;53.34;101504.59;5080854;28;20468;-71
2022/05/10 03:57:47;;;;;;;10.77;7.03;;;;;;;14.48;53.18;101501.16;5080836;28;20169;-71
2022/05/10 04:00:18;;;;;;;7.93;5.90;;;;;;;14.85;52.61;101497.88;5080538;28;20714;-72
2022/05/10 04:02:44;;;;;;;7.83;6.73;;;;;;;14.64;53.06;101494.28;5080939;28;20169;-72
2022/05/10 04:05:10;;;;;;;10.67;7.33;;;;;;;14.84;52.88;101498.75;5080742;28;20515;-73
2022/05/10 04:07:35;;;;;;;7.93;6.47;;;;;;;14.21;54.29;101494.00;5081360;28;20157;-70
2022/05/10 04:10:00;;;;;;;6.73;6.03;;;;;;;14.57;53.29;101492.47;5080085;28;20468;-71
2022/05/10 04:12:26;;;;;;;7.50;6.70;;;;;;;14.87;52.98;101493.50;5080532;28;20201;-71
2022/05/10 04:14:51;;;;;;;7.33;6.67;;;;;;;15.10;52.18;101489.22;5081064;28;20188;-71
2022/05/10 04:17:16;;;;;;;8.30;6.47;;;;;;;15.10;52.29;101490.94;5080379;28;20180;-70
2022/05/10 04:19:42;;;;;;;7.90;6.80;;;;;;;14.93;52.59;101488.28;5080731;28;20230;-71
2022/05/10 04:22:08;;;;;;;9.20;7.20;;;;;;;15.08;52.53;101477.81;5080779;28;20176;-74
2022/05/10 04:24:34;;;;;;;8.53;6.73;;;;;;;15.15;52.21;101476.09;5080297;28;20173;-71
2022/05/10 04:27:00;;;;;;;7.10;6.40;;;;;;;15.15;52.40;101474.34;5080275;28;20168;-72
2022/05/10 04:29:26;;;;;;;7.90;7.10;;;;;;;15.18;52.36;101473.50;5080760;28;20382;-70
2022/05/10 04:31:51;;;;;;;8.60;6.80;;;;;;;15.19;52.10;101474.34;5079914;28;20386;-73
2022/05/10 04:34:16;;;;;;;9.97;7.07;;;;;;;15.57;51.22;101470.91;5080199;28;20251;-71
2022/05/10 04:36:41;;;;;;;8.87;7.53;;;;;;;15.84;50.74;101470.06;5080688;28;20227;-71
2022/05/10 04:39:07;;;;;;;8.77;7.23;;;;;;;15.35;52.52;101468.25;5080268;28;20164;-71
2022/05/10 04:41:35;;;;;;;9.50;6.70;;;;;;;15.94;50.72;101460.41;5079793;28;20165;-72
2022/05/10 04:44:07;;;;;;;7.40;6.70;;;;;;;16.25;49.99;101465.59;5080436;28;20165;-71
2022/05/10 04:46:37;;;;;;;12.20;7.50;;;;;;;16.06;50.17;101465.66;5079601;28;20490;-71
2022/05/10 04:49:03;;;;;;;8.47;6.77;;;;;;;16.42;49.41;101458.56;5079900;28;20426;-71
2022/05/10 04:51:28;;;;;;;9.73;7.50;;;;;;;15.70;51.02;101462.16;5079596;28;20411;-71
2022/05/10 04:53:54;;;;;;;8.87;6.33;;;;;;;15.79;51.12;101462.16;5079978;28;20433;-71
2022/05/10 04:56:21;;;;;;;10.73;7.43;;;;;;;15.72;51.41;101457.78;5080170;28;20193;-71
2022/05/10 04:58:47;;;;;;;10.27;7.90;;;;;;;15.23;52.65;101462.97;5077863;28;20414;-71
2022/05/10 05:01:14;;;;;;;8.67;6.77;;;;;;;15.71;51.64;101456.03;5072118;28;20184;-69
2022/05/10 05:03:48;;;;;;;9.73;6.83;;;;;;;15.82;51.91;101454.28;5068943;28;20426;-72
2022/05/10 05:06:13;;;;;;;10.27;6.87;;;;;;;15.75;52.34;101455.13;5079691;28;20425;-78
2022/05/10 05:08:39;;;;;;;14.10;6.90;;;;;;;15.26;53.14;101465.59;5062834;28;20410;-74
2022/05/10 05:11:04;;;;;;;9.83;6.97;;;;;;;15.82;52.09;101461.31;5058873;28;20161;-72
2022/05/10 05:13:30;;;;;;;9.70;7.27;;;;;;;15.37;52.53;101463.00;5069192;28;20220;-73
2022/05/10 05:15:55;;;;;;;8.80;6.90;;;;;;;15.58;52.79;101456.88;5078311;28;20234;-72
2022/05/10 05:18:21;;;;;;;8.70;6.57;;;;;;;15.74;52.27;101453.38;5077723;28;20559;-77
2022/05/10 05:20:48;;;;;;;9.03;7.37;;;;;;;16.07;51.66;101454.25;5078052;28;20181;-70
2022/05/10 05:23:14;;;;;;;8.50;7.00;;;;;;;15.43;53.31;101457.75;5062473;28;20531;-71
2022/05/10 05:25:41;;;;;;;7.20;6.50;;;;;;;16.12;51.57;101460.38;5069244;28;20447;-73
2022/05/10 05:28:08;;;;;;;9.17;7.07;;;;;;;16.37;51.42;101455.06;5079085;28;20177;-70
2022/05/10 05:30:34;;;;;;;11.30;7.70;;;;;;;16.74;50.44;101465.47;5074200;28;20553;-73
2022/05/10 05:32:59;;;;;;;11.03;7.20;;;;;;;16.60;50.63;101451.47;5062611;28;20842;-71
2022/05/10 05:35:25;;;;;;;9.13;7.00;;;;;;;16.65;50.64;101454.97;5057703;28;20169;-73
2022/05/10 05:37:51;;;;;;;14.93;7.73;;;;;;;17.03;49.41;101453.94;5060316;28;20193;-72
2022/05/10 05:40:18;;;;;;;9.10;7.20;;;;;;;17.49;48.51;101451.00;5078593;28;20493;-70
2022/05/10 05:42:44;;;;;;;10.00;7.37;;;;;;;17.29;48.44;101453.78;5078417;28;20429;-70
2022/05/10 05:45:11;;;;;;;24.33;10.07;;;;;;;17.63;47.32;101452.63;5065491;28;20439;-70
2022/05/10 05:47:37;;;;;;;12.03;7.20;;;;;;;17.32;48.54;101461.66;5063664;28;20256;-70
2022/05/10 05:50:05;;;;;;;8.17;7.27;;;;;;;18.01;47.24;101454.09;5058234;28;20435;-70
2022/05/10 05:52:32;;;;;;;12.80;7.50;;;;;;;18.90;45.01;101443.41;5058292;28;20534;-70
2022/05/10 05:54:57;;;;;;;12.60;7.30;;;;;;;19.68;43.41;101441.31;5057702;28;20386;-70
2022/05/10 05:57:23;;;;;;;11.93;7.07;;;;;;;19.49;43.81;101444.28;5073541;28;20443;-70
2022/05/10 05:59:51;;;;;;;9.00;7.07;;;;;;;20.15;42.48;101436.97;5078804;28;20166;-70
2022/05/10 06:02:18;;;;;;;7.50;6.80;;;;;;;19.62;42.91;101444.97;5078199;28;20168;-70
2022/05/10 06:04:44;;;;;;;8.00;7.17;;;;;;;20.74;41.09;101434.94;5076089;28;20442;-69
2022/05/10 06:07:13;;;;;;;13.83;7.53;;;;;;;21.38;39.99;101422.00;5077111;28;20861;-70
2022/05/10 06:09:40;;;;;;;8.57;7.63;;;;;;;21.99;39.05;101424.88;5076859;28;20198;-70
2022/05/10 06:12:07;;;;;;;8.50;7.47;;;;;;;21.01;40.13;101421.09;5083263;28;20469;-70
2022/05/10 06:14:34;;;;;;;8.37;7.40;;;;;;;21.25;40.23;101420.53;5061201;28;20477;-71
2022/05/10 06:17:00;;;;;;;9.50;7.43;;;;;;;22.44;38.40;101410.34;5064865;28;20431;-70
2022/05/10 06:19:25;;;;;;;8.10;7.30;;;;;;;22.43;37.91;101407.75;5074743;28;20434;-70
2022/05/10 06:21:51;;;;;;;18.23;7.33;;;;;;;22.34;37.80;101408.88;5070100;28;20569;-71
2022/05/10 06:24:16;;;;;;;7.93;6.93;;;;;;;22.08;38.74;101415.75;5076145;28;20177;-70
2022/05/10 06:26:42;;;;;;;10.30;7.30;;;;;;;22.41;38.19;101414.88;5063896;28;20298;-70
2022/05/10 06:29:08;;;;;;;10.20;7.20;;;;;;;22.04;38.53;101408.78;5076607;28;20199;-69
2022/05/10 06:31:33;;;;;;;13.80;8.20;;;;;;;22.30;38.58;101409.84;5076195;28;20187;-68
2022/05/10 06:33:58;;;;;;;13.10;8.37;;;;;;;21.86;39.74;101412.81;5063229;28;20229;-70
2022/05/10 06:36:24;;;;;;;9.50;7.97;;;;;;;22.32;38.57;101410.69;5066534;28;20184;-70
2022/05/10 06:38:50;;;;;;;8.20;7.50;;;;;;;22.75;37.99;101404.13;5072129;28;20195;-70
2022/05/10 06:41:15;;;;;;;11.77;7.43;;;;;;;23.30;37.37;101412.16;5071775;28;20181;-71
2022/05/10 06:43:41;;;;;;;12.10;8.27;;;;;;;22.91;37.52;101400.97;5075763;28;20446;-70
2022/05/10 06:46:13;;;;;;;9.97;8.00;;;;;;;22.43;38.47;101403.28;5076860;28;20535;-70
2022/05/10 06:48:39;;;;;;;14.20;8.40;;;;;;;22.80;38.38;101396.88;5075023;28;20192;-71
2022/05/10 06:51:08;;;;;;;13.50;8.63;;;;;;;22.99;38.32;101386.53;5076266;28;20435;-70
2022/05/10 06:53:35;;;;;;;14.17;7.73;;;;;;;22.30;39.62;101383.28;5076904;28;20287;-69
2022/05/10 06:56:00;;;;;;;10.53;8.13;;;;;;;23.41;37.24;101374.56;5077151;28;20438;-70
2022/05/10 06:58:25;;;;;;;11.63;7.70;;;;;;;22.76;38.90;101381.94;5074083;28;20504;-70
2022/05/10 07:00:53;;;;;;;16.80;8.60;;;;;;;22.74;38.83;101380.25;5074031;28;20177;-70
2022/05/10 07:03:26;;;;;;;11.13;7.77;;;;;;;23.20;37.85;101379.69;5075698;28;20185;-69
2022/05/10 07:05:51;;;;;;;11.60;8.03;;;;;;;23.69;36.81;101376.25;5068783;28;20432;-70
2022/05/10 07:08:17;;;;;;;12.17;7.80;;;;;;;23.67;37.11;101372.78;5065251;28;20433;-70
2022/05/10 07:10:45;;;;;;;10.33;7.47;;;;;;;25.29;34.17;101357.72;5076942;28;20165;-70
2022/05/10 07:13:17;;;;;;;16.93;7.97;;;;;;;25.28;34.35;101364.03;5076601;28;20247;-71
2022/05/10 07:15:44;;;;;;;9.30;7.67;;;;;;;25.80;33.92;101353.75;5076196;28;20426;-70
2022/05/10 07:18:10;;;;;;;12.10;7.80;;;;;;;26.17;33.60;101356.63;5077740;28;20431;-70
2022/05/10 07:20:35;;;;;;;13.70;7.47;;;;;;;27.09;31.97;101351.34;5077766;28;20844;-70
2022/05/10 07:23:00;;;;;;;16.80;7.70;;;;;;;26.66;32.05;101351.63;5077296;28;20439;-70
2022/05/10 07:25:28;;;;;;;12.77;7.30;;;;;;;27.78;30.60;101344.25;5077961;28;20161;-69
2022/05/10 07:27:54;;;;;;;10.07;7.40;;;;;;;26.65;32.09;101355.22;5077604;28;20188;-69
2022/05/10 07:30:21;;;;;;;8.30;7.50;;;;;;;26.23;33.21;101357.19;5078054;28;20421;-70
2022/05/10 07:32:46;;;;;;;13.33;7.90;;;;;;;26.23;33.24;101353.66;5077714;28;20443;-70
2022/05/10 07:35:12;;;;;;;10.17;8.23;;;;;;;25.39;34.76;101359.97;5079475;28;20407;-70
2022/05/10 07:37:39;;;;;;;16.17;8.07;;;;;;;24.92;36.27;101364.59;5081008;28;20218;-71
2022/05/10 07:40:06;;;;;;;11.60;8.20;;;;;;;25.40;35.27;101350.19;5080642;28;20263;-70
2022/05/10 07:42:32;;;;;;;16.60;9.17;;;;;;;25.06;36.06;101356.91;5080018;28;20474;-69
2022/05/10 07:44:58;;;;;;;18.17;8.20;;;;;;;25.12;35.53;101348.63;5080908;28;20407;-69
2022/05/10 07:47:23;;;;;;;19.07;7.93;;;;;;;25.57;35.24;101351.25;5080836;28;20473;-69
2022/05/10 07:49:49;;;;;;;15.70;8.03;;;;;;;25.36;35.95;101353.91;5080495;28;20234;-70
2022/05/10 07:52:14;;;;;;;13.50;8.07;;;;;;;24.83;36.06;101353.38;5080811;28;20181;-70
2022/05/10 07:54:39;;;;;;;14.00;8.00;;;;;;;25.81;35.04;101350.16;5080716;28;20502;-68
2022/05/10 07:57:05;;;;;;;10.33;7.67;;;;;;;25.67;34.90;101344.59;5080548;28;20204;-70
2022/05/10 07:59:31;;;;;;;15.07;7.63;;;;;;;25.15;35.98;101350.31;5080281;28;20168;-70
2022/05/10 08:01:56;;;;;;;11.43;8.07;;;;;;;25.51;35.36;101342.56;5080642;28;20558;-71
2022/05/10 08:04:22;;;;;;;9.77;7.60;;;;;;;25.44;35.33;101343.78;5080794;28;20407;-70
2022/05/10 08:06:47;;;;;;;11.97;8.30;;;;;;;25.10;36.07;101339.84;5080974;28;20396;-70
2022/05/10 08:09:13;;;;;;;10.27;7.73;;;;;;;25.12;35.63;101337.97;5080431;28;20176;-70
2022/05/10 08:11:39;;;;;;;13.03;7.93;;;;;;;24.93;36.48;101337.00;5080150;28;20161;-70
2022/05/10 08:14:05;;;;;;;8.30;7.40;;;;;;;25.61;35.18;101343.03;5080938;28;20447;-70
2022/05/10 08:16:32;;;;;;;11.63;7.33;;;;;;;24.48;36.86;101341.44;5080484;28;20430;-70
2022/05/10 08:18:57;;;;;;;10.57;7.80;;;;;;;25.18;36.20;101339.50;5080374;28;20161;-70
2022/05/10 08:21:23;;;;;;;14.43;8.40;;;;;;;25.39;35.97;101332.44;5080871;28;20427;-69
2022/05/10 08:23:52;;;;;;;16.30;7.60;;;;;;;25.52;35.51;101333.63;5080308;28;20192;-70
2022/05/10 08:26:17;;;;;;;8.50;6.93;;;;;;;26.11;34.47;101335.50;5080084;28;20192;-70
2022/05/10 08:28:42;;;;;;;11.60;6.67;;;;;;;26.21;34.59;101331.50;5080538;28;20792;-70
2022/05/10 08:31:09;;;;;;;13.20;8.33;;;;;;;26.63;34.08;101326.81;5080373;28;20173;-70
2022/05/10 08:33:37;;;;;;;8.43;7.00;;;;;;;26.46;34.41;101330.31;5079962;28;20200;-71
2022/05/10 08:36:04;;;;;;;13.27;7.83;;;;;;;26.29;34.97;101333.78;5080520;28;20688;-70
2022/05/10 08:38:30;;;;;;;9.03;7.67;;;;;;;25.68;35.37;101330.28;5079398;28;20740;-70
2022/05/10 08:41:03;;;;;;;16.23;7.80;;;;;;;25.76;35.81;101324.59;5080085;28;20411;-70
2022/05/10 08:43:33;;;;;;;9.13;7.80;;;;;;;25.42;36.29;101326.94;5079801;28;20411;-69
2022/05/10 08:45:59;;;;;;;17.00;8.53;;;;;;;25.04;36.68;101330.28;5078717;28;20824;-70
2022/05/10 08:48:26;;;;;;;13.10;7.60;;;;;;;25.15;37.05;101318.28;5079788;28;20410;-69
2022/05/10 08:50:51;;;;;;;13.07;7.27;;;;;;;24.76;37.57;101332.34;5079098;28;20208;-70
2022/05/10 08:53:17;;;;;;;10.00;7.70;;;;;;;25.27;37.14;101324.91;5079422;28;20788;-70
2022/05/10 08:55:51;;;;;;;10.23;7.20;;;;;;;25.78;36.12;101322.75;5080227;28;20418;-70
2022/05/10 08:58:38;;;;;;;8.00;7.20;;;;;;;26.68;34.12;101314.97;5079603;28;20407;-69
2022/05/10 09:01:07;;;;;;;7.90;7.10;;;;;;;27.32;33.09;101311.81;5079711;28;20464;-70
2022/05/10 09:03:38;;;;;;;20.73;7.70;;;;;;;28.05;32.01;101311.59;5078693;28;20793;-70
2022/05/10 09:06:24;;;;;;;10.60;7.70;;;;;;;27.09;32.67;101313.88;5079436;28;20395;-70
2022/05/10 09:09:23;;;;;;;9.30;7.00;;;;;;;28.08;31.82;101308.75;5078705;28;20775;-70
2022/05/10 09:12:18;;;;;;;7.63;6.90;;;;;;;28.20;31.29;101297.31;5079255;28;20697;-70
2022/05/10 09:14:48;;;;;;;11.80;6.90;;;;;;;29.14;30.31;101299.13;5076290;28;20431;-70
2022/05/10 09:17:15;;;;;;;11.23;7.13;;;;;;;29.85;28.48;101291.25;5078525;28;20691;-70
2022/05/10 09:19:42;;;;;;;9.33;6.57;;;;;;;29.57;28.85;101285.78;5078374;28;20479;-71
2022/05/10 09:22:41;;;;;;;7.30;6.60;;;;;;;30.12;28.04;101282.41;5078748;28;20446;-71
2022/05/10 09:25:17;;;;;;;10.00;9.07;;;;;;;30.39;27.96;101277.06;5078942;28;20425;-70
2022/05/10 09:27:43;;;;;;;8.20;6.30;;;;;;;30.91;27.75;101273.59;5078148;28;20425;-70
2022/05/10 09:30:09;;;;;;;9.43;6.77;;;;;;;30.38;27.44;101278.03;5079373;28;20415;-68
2022/05/10 09:35:22;;;;;;;8.03;7.23;;;;;;;30.67;27.39;101268.06;5078324;28;20212;-70
2022/05/10 09:37:47;;;;;;;7.23;6.47;;;;;;;31.73;26.23;101265.31;5078555;28;20456;-69
2022/05/10 09:40:25;;;;;;;9.17;6.03;;;;;;;31.93;24.60;101257.59;5078595;28;20490;-70
2022/05/10 09:42:53;;;;;;;7.03;6.33;;;;;;;32.64;24.59;101254.22;5078519;28;20424;-70
2022/05/10 09:45:26;;;;;;;9.40;6.23;;;;;;;32.53;24.84;101260.41;5077734;28;20460;-70
2022/05/10 09:47:58;;;;;;;7.93;6.30;;;;;;;31.07;25.18;101267.22;5078459;28;20558;-70
2022/05/10 09:50:33;;;;;;;6.57;6.00;;;;;;;31.61;25.25;101249.13;5078746;28;20419;-68
2022/05/10 09:53:27;;;;;;;8.40;5.57;;;;;;;31.70;24.27;101243.97;5078387;28;20508;-70
2022/05/10 09:56:11;;;;;;;12.03;6.00;;;;;;;31.41;24.84;101251.41;5078519;28;20407;-70
2022/05/10 09:58:42;;;;;;;9.73;6.77;;;;;;;31.32;24.78;101239.41;5078054;28;20421;-70
2022/05/10 10:01:11;;;;;;;8.13;5.87;;;;;;;31.49;24.37;101235.53;5077602;28;20419;-70
2022/05/10 10:03:42;;;;;;;7.13;5.27;;;;;;;31.76;23.92;101231.00;5078163;28;20416;-70
2022/05/10 10:06:20;;;;;;;9.40;5.10;;;;;;;32.38;22.97;101221.94;5078232;28;20426;-69
2022/05/10 10:08:49;;;;;;;6.03;5.23;;;;;;;31.30;23.66;101219.81;5078235;28;20451;-70
2022/05/10 10:11:31;;;;;;;6.97;5.33;;;;;;;31.69;24.14;101227.88;5078348;28;20423;-70
2022/05/10 10:14:08;;;;;;;8.17;5.97;;;;;;;30.17;26.10;101227.38;5078257;28;20550;-70
2022/05/10 10:16:51;;;;;;;6.47;5.60;;;;;;;29.68;26.77;101212.56;5078201;28;20419;-70
2022/05/10 10:19:40;;;;;;;9.40;6.10;;;;;;;30.56;25.18;101208.72;5077448;28;20430;-70
2022/05/10 10:22:09;;;;;;;7.43;5.90;;;;;;;29.96;26.10;101212.63;5077341;28;20515;-70
2022/05/10 10:24:51;;;;;;;6.47;5.97;;;;;;;28.53;27.32;101215.88;5077682;28;20488;-71
2022/05/10 10:27:33;;;;;;;7.90;5.93;;;;;;;29.65;26.02;101212.75;5077626;28;20425;-70
2022/05/10 10:30:04;;;;;;;7.93;5.60;;;;;;;30.26;25.39;101200.84;5077535;28;20415;-70
2022/05/10 10:32:35;;;;;;;7.93;5.33;;;;;;;30.09;25.47;101204.66;5076979;28;20473;-70
2022/05/10 10:35:19;;;;;;;5.03;4.63;;;;;;;29.60;25.06;101192.53;5060416;28;20419;-69
2022/05/10 10:37:55;;;;;;;6.50;4.80;;;;;;;30.46;24.35;101180.69;5077125;28;20419;-70
2022/05/10 10:40:33;;;;;;;5.50;4.83;;;;;;;30.62;24.11;101183.22;5077968;28;20428;-70
2022/05/10 10:43:13;;;;;;;13.60;5.77;;;;;;;31.60;23.46;101172.81;5077857;28;20419;-70
2022/05/10 10:45:47;;;;;;;8.27;4.40;;;;;;;30.86;23.71;101172.59;5077864;28;20414;-70
2022/05/10 10:48:34;;;;;;;8.07;4.90;;;;;;;30.65;22.87;101175.81;5077208;28;20557;-70
2022/05/10 10:51:00;;;;;;;5.63;4.60;;;;;;;30.63;22.89;101183.09;5077957;28;20418;-70
2022/05/10 10:53:26;;;;;;;12.13;5.27;;;;;;;31.05;22.92;101180.28;5077743;28;20478;-71
2022/05/10 10:56:02;;;;;;;11.37;4.50;;;;;;;29.69;24.25;101182.06;5077854;28;20180;-71
2022/05/10 10:58:55;;;;;;;5.13;4.63;;;;;;;28.94;24.92;101178.66;5077723;28;20504;-70
2022/05/10 11:01:43;;;;;;;7.60;4.90;;;;;;;30.38;23.60;101160.53;5077599;28;20403;-70
2022/05/10 11:04:35;;;;;;;7.57;5.83;;;;;;;28.88;25.30;101159.28;5076981;28;20422;-70
2022/05/10 11:07:08;;;;;;;11.47;4.93;;;;;;;28.30;26.31;101165.44;5077287;28;20495;-70
2022/05/10 11:09:42;;;;;;;5.00;4.50;;;;;;;28.59;25.53;101157.47;5079998;28;20419;-70
2022/05/10 11:12:32;;;;;;;6.93;4.83;;;;;;;28.60;25.53;101161.88;5080652;28;20419;-70
2022/05/10 11:15:21;;;;;;;6.27;5.27;;;;;;;28.67;26.18;101149.84;5080456;28;20438;-70
2022/05/10 11:18:05;;;;;;;7.50;4.63;;;;;;;28.65;25.53;101154.47;5081635;28;20418;-70
2022/05/10 11:20:43;;;;;;;6.03;4.90;;;;;;;29.24;24.22;101144.56;5081360;28;20407;-70
2022/05/10 11:23:10;;;;;;;7.70;4.40;;;;;;;28.54;25.51;101142.53;5080506;28;20496;-70
2022/05/10 11:25:41;;;;;;;6.43;4.90;;;;;;;28.60;25.03;101133.22;5081142;28;20415;-71
2022/05/10 11:28:31;;;;;;;5.10;4.60;;;;;;;28.26;25.38;101124.53;5081788;28;20876;-71
2022/05/10 11:31:06;;;;;;;12.50;5.20;;;;;;;28.89;24.86;101133.34;5080951;28;20415;-70
2022/05/10 11:33:56;;;;;;;7.93;5.80;;;;;;;28.73;25.58;101112.78;5080356;28;20728;-70
2022/05/10 11:36:36;;;;;;;5.70;5.00;;;;;;;29.00;24.36;101125.47;5081090;28;20400;-70
2022/05/10 11:39:39;;;;;;;7.20;5.30;;;;;;;28.96;24.79;101123.09;5080909;28;20470;-70
2022/05/10 11:42:32;;;;;;;7.97;5.60;;;;;;;28.38;26.48;101122.94;5080584;28;20395;-71
2022/05/10 11:45:07;;;;;;;8.77;4.80;;;;;;;27.90;26.63;101134.59;5080541;28;20435;-70
2022/05/10 11:47:40;;;;;;;17.60;4.70;;;;;;;28.00;25.80;101118.88;5080996;28;20469;-70